Time;durP1;ratioP1;P1;durP2;ratioP2;P2;SDS_P1;SDS_P2;PMS_P1;PMS_P2;Temp;Humidity;BMP_temperature;BMP_pressure;BME280_temperature;BME280_humidity;BME280_pressure;Samples;Min_cycle;Max_cycle;Signal;HPM_P1;HPM_P2
2022/11/19 00:00:52;;;;;;;0.20;0.20;;;1.10;99.90;;;;;;5126673;27;20501;-71
2022/11/19 00:03:19;;;;;;;0.20;0.20;;;1.10;99.90;;;;;;5151903;27;20043;-71
2022/11/19 00:05:47;;;;;;;0.20;0.20;;;1.10;99.90;;;;;;5149142;27;20053;-71
2022/11/19 00:08:18;;;;;;;0.20;0.20;;;1.10;99.90;;;;;;5151478;27;20030;-71
2022/11/19 00:10:44;;;;;;;0.13;0.13;;;1.00;99.90;;;;;;5129420;27;20098;-71
2022/11/19 00:13:11;;;;;;;0.20;0.20;;;1.00;99.90;;;;;;5125603;27;20050;-71
2022/11/19 00:15:37;;;;;;;0.20;0.20;;;1.00;99.90;;;;;;5143853;27;20036;-71
2022/11/19 00:18:04;;;;;;;0.20;0.20;;;0.90;99.90;;;;;;5129474;27;20508;-71
2022/11/19 00:20:31;;;;;;;0.20;0.20;;;0.90;99.90;;;;;;5118879;27;20043;-71
2022/11/19 00:22:57;;;;;;;0.20;0.20;;;0.90;99.90;;;;;;5139478;27;20114;-70
2022/11/19 00:25:24;;;;;;;0.20;0.20;;;0.90;99.90;;;;;;5133604;27;20134;-71
2022/11/19 00:27:51;;;;;;;0.20;0.20;;;0.90;99.90;;;;;;5124097;27;20034;-71
2022/11/19 00:30:18;;;;;;;0.30;0.30;;;0.80;99.90;;;;;;5135060;27;20137;-71
2022/11/19 00:32:44;;;;;;;0.20;0.20;;;0.80;99.90;;;;;;5153233;27;20042;-71
2022/11/19 00:35:10;;;;;;;0.20;0.20;;;0.80;99.90;;;;;;5139049;27;20043;-70
2022/11/19 00:37:35;;;;;;;0.20;0.20;;;0.70;99.90;;;;;;5148692;27;20451;-71
2022/11/19 00:40:01;;;;;;;0.20;0.20;;;-0.30;99.90;;;;;;5123875;27;20112;-71
2022/11/19 00:42:27;;;;;;;0.20;0.20;;;0.70;99.90;;;;;;5145593;27;20581;-71
2022/11/19 00:44:53;;;;;;;0.20;0.20;;;0.70;99.90;;;;;;5145598;27;20039;-71
2022/11/19 00:47:18;;;;;;;0.20;0.20;;;0.70;99.90;;;;;;5145709;27;20552;-71
2022/11/19 00:49:44;;;;;;;0.20;0.20;;;0.60;99.90;;;;;;5123320;27;20059;-71
2022/11/19 00:52:10;;;;;;;0.20;0.20;;;0.60;99.90;;;;;;5125608;27;20397;-70
2022/11/19 00:54:35;;;;;;;0.20;0.20;;;0.60;99.90;;;;;;5146615;27;20131;-71
2022/11/19 00:57:01;;;;;;;0.20;0.20;;;0.50;99.90;;;;;;5130368;27;20082;-71
2022/11/19 00:59:27;;;;;;;0.20;0.20;;;0.50;99.90;;;;;;5132593;27;20593;-71
2022/11/19 01:01:52;;;;;;;0.20;0.20;;;0.50;99.90;;;;;;5128459;27;20283;-71
2022/11/19 01:04:18;;;;;;;0.20;0.20;;;0.50;99.90;;;;;;5146745;27;20043;-71
2022/11/19 01:06:44;;;;;;;0.20;0.20;;;0.40;99.90;;;;;;5124543;27;20114;-71
2022/11/19 01:09:10;;;;;;;0.20;0.20;;;0.40;99.90;;;;;;5133883;27;20103;-71
2022/11/19 01:11:37;;;;;;;0.20;0.20;;;0.40;99.90;;;;;;5143397;27;20142;-70
2022/11/19 01:14:04;;;;;;;0.20;0.20;;;0.40;99.90;;;;;;5141340;27;20039;-71
2022/11/19 01:16:33;;;;;;;0.20;0.20;;;0.40;99.90;;;;;;5132798;27;20053;-70
2022/11/19 01:18:59;;;;;;;0.20;0.20;;;0.30;99.90;;;;;;5115614;27;20035;-71
2022/11/19 01:21:27;;;;;;;0.20;0.20;;;0.30;99.90;;;;;;5133024;27;20055;-70
2022/11/19 01:23:53;;;;;;;0.20;0.20;;;0.30;99.90;;;;;;5137093;27;20039;-71
2022/11/19 01:26:19;;;;;;;0.20;0.20;;;0.30;99.90;;;;;;5147498;27;20047;-70
2022/11/19 01:28:45;;;;;;;0.20;0.20;;;0.30;99.90;;;;;;5116850;27;20054;-71
2022/11/19 01:31:12;;;;;;;0.20;0.20;;;0.30;99.90;;;;;;5128111;27;20031;-71
2022/11/19 01:33:48;;;;;;;0.20;0.20;;;0.30;99.90;;;;;;5147762;27;20035;-71
2022/11/19 01:36:16;;;;;;;0.20;0.20;;;0.20;99.90;;;;;;5142563;27;20062;-71
2022/11/19 01:38:42;;;;;;;0.20;0.20;;;0.30;99.90;;;;;;5133302;27;20090;-71
2022/11/19 01:41:08;;;;;;;0.22;0.22;;;0.30;99.90;;;;;;5149037;27;20442;-71
2022/11/19 01:43:49;;;;;;;0.20;0.20;;;0.20;99.90;;;;;;5123068;27;20435;-70
2022/11/19 01:46:23;;;;;;;0.20;0.20;;;0.20;99.90;;;;;;5128053;27;20077;-71
2022/11/19 01:49:01;;;;;;;0.20;0.20;;;0.20;99.90;;;;;;5133496;27;20296;-70
2022/11/19 01:51:42;;;;;;;0.20;0.20;;;0.20;99.90;;;;;;5130161;27;20062;-70
2022/11/19 01:54:20;;;;;;;0.20;0.20;;;0.20;99.90;;;;;;5144174;27;20631;-70
2022/11/19 01:56:46;;;;;;;0.20;0.20;;;0.20;99.90;;;;;;5122058;27;20046;-70
2022/11/19 01:59:15;;;;;;;0.20;0.20;;;0.20;99.90;;;;;;5121003;27;20038;-70
2022/11/19 02:01:43;;;;;;;0.20;0.20;;;0.20;99.90;;;;;;5135084;27;20041;-70
2022/11/19 02:04:10;;;;;;;0.20;0.20;;;0.10;99.90;;;;;;5131261;27;20050;-70
2022/11/19 02:06:37;;;;;;;0.20;0.20;;;0.10;99.90;;;;;;5136727;27;20042;-70
2022/11/19 02:09:03;;;;;;;0.17;0.17;;;0.10;99.90;;;;;;5130615;27;20071;-70
2022/11/19 02:12:06;;;;;;;0.20;0.20;;;0.10;99.90;;;;;;5127855;27;20039;-70
2022/11/19 02:14:38;;;;;;;0.20;0.20;;;0.10;99.90;;;;;;5136307;27;20105;-70
2022/11/19 02:17:13;;;;;;;;;;;0.00;99.90;;;;;;5139453;27;20045;-70
2022/11/19 02:20:00;;;;;;;0.17;0.17;;;0.00;99.90;;;;;;5115592;27;19927;-71
2022/11/19 02:23:03;;;;;;;0.20;0.20;;;0.00;99.90;;;;;;5118986;27;20042;-70
2022/11/19 02:25:51;;;;;;;0.20;0.20;;;0.00;99.90;;;;;;5123876;27;20138;-70
2022/11/19 02:28:34;;;;;;;0.20;0.20;;;0.00;99.90;;;;;;5131136;27;20047;-70
2022/11/19 02:31:10;;;;;;;0.20;0.20;;;-1.00;99.90;;;;;;5137277;27;20047;-70
2022/11/19 02:33:51;;;;;;;0.20;0.20;;;-0.10;99.90;;;;;;5131414;27;20035;-70
2022/11/19 02:36:20;;;;;;;0.20;0.20;;;-0.10;99.90;;;;;;5118031;27;20051;-70
2022/11/19 02:38:52;;;;;;;0.20;0.20;;;-0.20;99.90;;;;;;5125338;27;20077;-70
2022/11/19 02:41:43;;;;;;;;;;;-0.20;99.90;;;;;;5136992;27;20051;-71
2022/11/19 02:47:10;;;;;;;0.20;0.20;;;-0.30;99.90;;;;;;5146696;27;21071;-71
2022/11/19 02:49:42;;;;;;;0.20;0.20;;;-0.30;99.90;;;;;;5136271;27;20035;-70
2022/11/19 02:52:08;;;;;;;0.20;0.20;;;-0.30;99.90;;;;;;5139733;27;20047;-70
2022/11/19 02:54:34;;;;;;;0.20;0.20;;;-0.40;99.90;;;;;;5114354;28;20043;-70
2022/11/19 02:56:59;;;;;;;0.20;0.20;;;-0.40;99.90;;;;;;5121210;27;20042;-70
2022/11/19 03:05:11;;;;;;;0.20;0.20;;;-0.50;99.90;;;;;;5122941;27;20046;-70
2022/11/19 03:07:36;;;;;;;0.20;0.20;;;-0.40;99.90;;;;;;5141818;27;20126;-70
2022/11/19 03:10:05;;;;;;;0.20;0.20;;;-0.50;99.90;;;;;;5143905;27;20121;-70
2022/11/19 03:12:40;;;;;;;0.20;0.20;;;-0.50;99.90;;;;;;5126025;27;20129;-70
2022/11/19 03:18:13;;;;;;;0.20;0.20;;;-0.50;99.90;;;;;;5125343;27;20047;-70
2022/11/19 03:21:06;;;;;;;0.20;0.20;;;-0.50;99.90;;;;;;5140664;27;20067;-71
2022/11/19 03:23:40;;;;;;;0.20;0.20;;;-0.60;99.90;;;;;;5116490;27;20047;-71
2022/11/19 03:26:26;;;;;;;0.20;0.20;;;-0.60;99.90;;;;;;5132985;27;20061;-70
2022/11/19 03:28:54;;;;;;;0.20;0.20;;;-0.60;99.90;;;;;;5145011;27;20441;-70
2022/11/19 03:31:23;;;;;;;0.20;0.20;;;-0.60;99.90;;;;;;5139219;27;20042;-70
2022/11/19 03:33:54;;;;;;;0.20;0.20;;;-0.60;99.90;;;;;;5126993;27;20054;-70
2022/11/19 03:36:26;;;;;;;0.20;0.20;;;-0.60;99.90;;;;;;5146946;27;20089;-70
2022/11/19 03:38:58;;;;;;;0.20;0.20;;;-0.70;99.90;;;;;;5129556;27;20055;-70
2022/11/19 03:41:26;;;;;;;0.20;0.20;;;-0.70;99.90;;;;;;5135552;27;20046;-70
2022/11/19 03:44:00;;;;;;;0.20;0.20;;;-0.70;99.90;;;;;;5148681;27;20121;-70
2022/11/19 03:46:29;;;;;;;0.20;0.20;;;-0.70;99.90;;;;;;5123190;27;20038;-70
2022/11/19 03:48:56;;;;;;;0.20;0.20;;;-0.70;99.90;;;;;;5133908;27;20047;-70
2022/11/19 03:51:40;;;;;;;0.20;0.20;;;-0.70;99.90;;;;;;5147608;27;20097;-70
2022/11/19 03:54:06;;;;;;;0.20;0.20;;;-0.70;99.90;;;;;;5117004;27;20441;-70
2022/11/19 03:56:34;;;;;;;0.20;0.20;;;-0.70;99.90;;;;;;5153188;27;20054;-70
2022/11/19 03:59:03;;;;;;;0.20;0.20;;;-0.80;99.90;;;;;;5120035;27;20130;-70
2022/11/19 04:01:29;;;;;;;0.20;0.20;;;-0.80;99.90;;;;;;5151116;27;20043;-70
2022/11/19 04:06:39;;;;;;;0.20;0.20;;;-0.80;99.90;;;;;;5133005;27;20054;-70
2022/11/19 04:09:05;;;;;;;0.20;0.20;;;-0.80;99.90;;;;;;5147604;27;20695;-70
2022/11/19 04:11:31;;;;;;;0.20;0.20;;;-0.80;99.90;;;;;;5150176;27;20046;-70
2022/11/19 04:13:56;;;;;;;0.20;0.20;;;-0.80;99.90;;;;;;5152278;27;20131;-70
2022/11/19 04:16:22;;;;;;;0.20;0.20;;;-0.90;99.90;;;;;;5121112;27;20062;-70
2022/11/19 04:18:48;;;;;;;0.20;0.20;;;-0.80;99.90;;;;;;5122309;27;20039;-70
2022/11/19 04:21:13;;;;;;;0.20;0.20;;;-0.90;99.90;;;;;;5132542;27;20039;-70
2022/11/19 04:23:39;;;;;;;0.20;0.20;;;-0.80;99.90;;;;;;5115642;27;20070;-71
2022/11/19 04:26:07;;;;;;;0.20;0.20;;;-0.90;99.90;;;;;;5119117;27;20051;-70
2022/11/19 04:28:33;;;;;;;0.20;0.20;;;-0.90;99.90;;;;;;5136596;27;20531;-70
2022/11/19 04:30:58;;;;;;;0.20;0.20;;;-0.90;99.90;;;;;;5152363;27;20503;-70
2022/11/19 04:33:24;;;;;;;0.20;0.20;;;-0.90;99.90;;;;;;5134612;27;20039;-70
2022/11/19 04:35:49;;;;;;;0.20;0.20;;;-0.90;99.90;;;;;;5115397;27;20058;-70
2022/11/19 04:38:15;;;;;;;0.20;0.20;;;-0.90;99.90;;;;;;5114774;27;20116;-70
2022/11/19 04:40:41;;;;;;;0.20;0.20;;;-0.90;99.90;;;;;;5147958;27;20055;-70
2022/11/19 04:43:06;;;;;;;0.20;0.20;;;-1.00;99.90;;;;;;5149979;27;20070;-70
2022/11/19 04:45:32;;;;;;;0.20;0.20;;;-1.00;99.90;;;;;;5135861;27;20430;-69
2022/11/19 04:47:59;;;;;;;0.20;0.20;;;-1.00;99.90;;;;;;5144946;27;20140;-70
2022/11/19 04:50:25;;;;;;;0.20;0.20;;;-1.00;99.90;;;;;;5150127;27;20057;-70
2022/11/19 04:52:50;;;;;;;0.17;0.17;;;-1.00;99.90;;;;;;5130452;27;20038;-70
2022/11/19 04:55:16;;;;;;;0.20;0.20;;;-1.00;99.90;;;;;;5125452;27;20409;-70
2022/11/19 04:57:41;;;;;;;0.20;0.20;;;-1.00;99.90;;;;;;5144397;27;20512;-70
2022/11/19 05:00:08;;;;;;;0.20;0.20;;;-1.00;99.90;;;;;;5151782;27;20444;-70
2022/11/19 05:02:34;;;;;;;0.20;0.20;;;-1.00;99.90;;;;;;5133765;27;20051;-70
2022/11/19 05:04:59;;;;;;;0.20;0.20;;;-1.00;99.90;;;;;;5146812;27;20047;-69
2022/11/19 05:07:25;;;;;;;0.20;0.20;;;-1.10;99.90;;;;;;5118015;27;20493;-69
2022/11/19 05:09:51;;;;;;;0.20;0.20;;;-1.00;99.90;;;;;;5130289;27;20046;-69
2022/11/19 05:12:16;;;;;;;0.20;0.20;;;-1.10;99.90;;;;;;5134938;27;20062;-69
2022/11/19 05:14:42;;;;;;;0.20;0.20;;;-1.10;99.90;;;;;;5116760;27;20039;-69
2022/11/19 05:17:08;;;;;;;0.20;0.20;;;-1.10;99.90;;;;;;5135034;27;20127;-69
2022/11/19 05:19:33;;;;;;;0.20;0.20;;;-1.10;99.90;;;;;;5142267;27;20039;-68
2022/11/19 05:21:59;;;;;;;0.20;0.20;;;-1.10;99.90;;;;;;5130771;27;20087;-69
2022/11/19 05:24:24;;;;;;;0.13;0.13;;;-1.10;99.90;;;;;;5130319;27;20046;-69
2022/11/19 05:26:50;;;;;;;0.20;0.20;;;-1.10;99.90;;;;;;5147860;27;20050;-69
2022/11/19 05:29:15;;;;;;;0.30;0.30;;;-1.10;99.90;;;;;;5126231;27;20044;-68
2022/11/19 05:31:41;;;;;;;0.20;0.20;;;-1.10;99.90;;;;;;5151492;27;20520;-69
2022/11/19 05:34:07;;;;;;;0.20;0.20;;;-1.10;99.90;;;;;;5134677;27;20035;-69
2022/11/19 05:36:32;;;;;;;0.20;0.20;;;-1.10;99.90;;;;;;5130356;27;20074;-69
2022/11/19 05:38:58;;;;;;;0.20;0.20;;;-1.10;99.90;;;;;;5129396;27;20057;-69
2022/11/19 05:41:24;;;;;;;0.20;0.20;;;-1.10;99.90;;;;;;5113958;27;20031;-69
2022/11/19 05:43:49;;;;;;;0.17;0.17;;;-1.20;99.90;;;;;;5131265;27;20642;-68
2022/11/19 05:46:15;;;;;;;0.20;0.20;;;-1.20;99.90;;;;;;5116176;27;20091;-69
2022/11/19 05:48:40;;;;;;;0.20;0.20;;;-1.00;99.90;;;;;;5145134;27;20092;-69
2022/11/19 05:51:06;;;;;;;0.20;0.20;;;-1.20;99.90;;;;;;5150969;27;20031;-69
2022/11/19 05:53:32;;;;;;;0.10;0.10;;;-1.20;99.90;;;;;;5133385;27;20138;-68
2022/11/19 05:55:57;;;;;;;0.20;0.20;;;-1.20;99.90;;;;;;5125404;27;20027;-68
2022/11/19 05:58:23;;;;;;;0.10;0.10;;;-1.20;99.90;;;;;;5119962;27;20046;-69
2022/11/19 06:00:55;;;;;;;0.20;0.20;;;-1.20;99.90;;;;;;5123846;27;20088;-69
2022/11/19 06:03:21;;;;;;;0.20;0.20;;;-1.20;99.90;;;;;;5143271;27;20049;-68
2022/11/19 06:05:46;;;;;;;0.20;0.20;;;-1.20;99.90;;;;;;5139132;27;20038;-69
2022/11/19 06:08:15;;;;;;;0.20;0.20;;;-1.30;99.90;;;;;;5147639;27;20042;-68
2022/11/19 06:10:41;;;;;;;0.10;0.10;;;-1.30;99.90;;;;;;5125231;27;20043;-69
2022/11/19 06:13:06;;;;;;;0.10;0.10;;;-1.30;99.90;;;;;;5117202;27;20112;-69
2022/11/19 06:15:32;;;;;;;0.20;0.20;;;-1.30;99.90;;;;;;5114076;27;20035;-69
2022/11/19 06:17:58;;;;;;;0.20;0.20;;;-1.30;99.90;;;;;;5118237;27;20452;-69
2022/11/19 06:20:23;;;;;;;0.20;0.20;;;-1.30;99.90;;;;;;5128497;27;20049;-69
2022/11/19 06:22:50;;;;;;;0.20;0.20;;;-1.30;99.90;;;;;;5150906;27;20069;-70
2022/11/19 06:25:16;;;;;;;0.10;0.10;;;-1.30;99.90;;;;;;5146177;27;20102;-69
2022/11/19 06:27:41;;;;;;;0.20;0.20;;;-1.30;99.90;;;;;;5145007;27;20125;-69
2022/11/19 06:30:08;;;;;;;0.20;0.20;;;-1.40;99.90;;;;;;5123409;27;20043;-70
2022/11/19 06:32:33;;;;;;;0.20;0.20;;;-1.30;99.90;;;;;;5142547;27;22145;-69
2022/11/19 06:34:59;;;;;;;0.20;0.20;;;-1.30;99.90;;;;;;5138160;27;20066;-68
2022/11/19 06:37:24;;;;;;;0.20;0.20;;;-1.30;99.90;;;;;;5118679;27;21344;-69
2022/11/19 06:39:50;;;;;;;0.20;0.20;;;-1.30;99.90;;;;;;5146511;27;20050;-69
2022/11/19 06:45:00;;;;;;;0.10;0.10;;;-1.40;99.90;;;;;;5145951;27;20047;-68
2022/11/19 06:47:28;;;;;;;0.20;0.20;;;-1.40;99.90;;;;;;5146917;27;20054;-69
2022/11/19 06:49:53;;;;;;;0.20;0.20;;;-1.40;99.90;;;;;;5114369;27;20047;-69
2022/11/19 06:52:19;;;;;;;0.20;0.20;;;-1.40;99.90;;;;;;5129463;27;20046;-69
2022/11/19 06:54:44;;;;;;;0.20;0.20;;;-1.40;99.90;;;;;;5115907;28;20401;-69
2022/11/19 06:57:10;;;;;;;0.20;0.20;;;-1.40;99.90;;;;;;5145133;27;20952;-68
2022/11/19 06:59:37;;;;;;;0.10;0.10;;;-1.40;99.90;;;;;;5140034;27;20049;-69
2022/11/19 07:02:03;;;;;;;0.10;0.10;;;-1.40;99.90;;;;;;5132670;27;20050;-69
2022/11/19 07:04:29;;;;;;;0.20;0.20;;;-1.40;99.90;;;;;;5151733;27;20031;-69
2022/11/19 07:06:55;;;;;;;0.20;0.20;;;-1.40;99.90;;;;;;5148994;27;20051;-69
2022/11/19 07:09:20;;;;;;;0.20;0.20;;;-1.40;99.90;;;;;;5151297;27;20043;-68
2022/11/19 07:11:46;;;;;;;0.20;0.20;;;-1.40;99.90;;;;;;5132389;27;20043;-69
2022/11/19 07:14:11;;;;;;;0.20;0.20;;;-1.40;99.90;;;;;;5138365;27;20458;-69
2022/11/19 07:16:37;;;;;;;0.20;0.20;;;-1.40;99.90;;;;;;5138808;27;20047;-69
2022/11/19 07:19:05;;;;;;;0.13;0.13;;;-1.40;99.90;;;;;;5145543;27;20042;-67
2022/11/19 07:21:31;;;;;;;0.10;0.10;;;-1.40;99.90;;;;;;5140144;27;20051;-70
2022/11/19 07:23:59;;;;;;;0.20;0.20;;;-1.40;99.90;;;;;;5145023;27;20034;-68
2022/11/19 07:26:25;;;;;;;0.17;0.17;;;-1.40;99.90;;;;;;5128537;27;20051;-68
2022/11/19 07:28:51;;;;;;;0.20;0.20;;;-1.50;99.90;;;;;;5118052;27;20043;-68
2022/11/19 07:31:16;;;;;;;0.20;0.20;;;-1.50;99.90;;;;;;5137319;27;20155;-68
2022/11/19 07:33:42;;;;;;;0.20;0.20;;;-1.50;99.90;;;;;;5136978;27;20035;-70
2022/11/19 07:36:09;;;;;;;0.20;0.20;;;-1.50;99.90;;;;;;5131659;27;20042;-70
2022/11/19 07:38:36;;;;;;;0.10;0.10;;;-1.50;99.90;;;;;;5117990;27;20074;-67
2022/11/19 07:42:47;;;;;;;0.20;0.20;;;-1.40;99.90;;;;;;5140950;27;20046;-68
2022/11/19 07:43:48;;;;;;;0.20;0.20;;;-1.40;99.90;;;;;;5140719;27;20068;-68
2022/11/19 07:46:13;;;;;;;0.10;0.10;;;-1.40;99.90;;;;;;5123114;27;20116;-68
2022/11/19 07:48:39;;;;;;;0.20;0.20;;;-1.40;99.90;;;;;;5144567;27;20043;-69
2022/11/19 07:51:04;;;;;;;0.13;0.13;;;-1.40;99.90;;;;;;5125050;27;20051;-69
2022/11/19 07:53:30;;;;;;;0.20;0.20;;;-1.40;99.90;;;;;;5129994;27;20049;-69
2022/11/19 07:55:59;;;;;;;0.20;0.20;;;-1.20;99.90;;;;;;5127139;27;20122;-69
2022/11/19 07:58:25;;;;;;;0.10;0.10;;;-1.30;99.90;;;;;;5144097;27;20546;-68
2022/11/19 08:00:51;;;;;;;0.20;0.20;;;-1.30;99.90;;;;;;5140702;27;20066;-69
2022/11/19 08:03:16;;;;;;;0.20;0.20;;;-1.30;99.90;;;;;;5142989;27;20069;-69
2022/11/19 08:05:42;;;;;;;0.20;0.20;;;-1.30;99.90;;;;;;5135355;27;20130;-69
2022/11/19 08:08:08;;;;;;;0.20;0.20;;;-1.20;99.90;;;;;;5135723;27;20050;-69
2022/11/19 08:10:35;;;;;;;0.20;0.20;;;-1.20;99.90;;;;;;5115940;27;20508;-69
2022/11/19 08:13:03;;;;;;;0.20;0.20;;;-1.20;99.90;;;;;;5122676;27;20393;-69
2022/11/19 08:15:30;;;;;;;0.20;0.20;;;-1.10;99.90;;;;;;5122586;27;20049;-69
2022/11/19 08:18:11;;;;;;;0.20;0.20;;;-1.10;99.90;;;;;;5145963;27;20091;-69
2022/11/19 08:20:39;;;;;;;0.20;0.20;;;-1.10;99.90;;;;;;5149245;27;20039;-69
2022/11/19 08:23:04;;;;;;;0.20;0.20;;;-0.90;99.90;;;;;;5124918;27;20051;-68
2022/11/19 08:25:30;;;;;;;0.20;0.20;;;-1.00;99.90;;;;;;5117539;27;20118;-69
2022/11/19 08:27:56;;;;;;;0.20;0.20;;;-1.00;99.90;;;;;;5144502;27;20031;-68
2022/11/19 08:30:21;;;;;;;0.20;0.20;;;-0.90;99.90;;;;;;5142332;27;20391;-68
2022/11/19 08:32:47;;;;;;;0.20;0.20;;;-0.90;99.90;;;;;;5137130;27;20076;-71
2022/11/19 08:35:13;;;;;;;0.20;0.20;;;-0.90;99.90;;;;;;5125975;27;20058;-69
2022/11/19 08:37:39;;;;;;;0.20;0.20;;;-0.90;99.90;;;;;;5143643;27;20039;-69
2022/11/19 08:40:05;;;;;;;0.20;0.20;;;-0.80;99.90;;;;;;5139428;27;20054;-69
2022/11/19 08:45:14;;;;;;;0.20;0.20;;;-0.80;99.90;;;;;;5143048;27;20383;-69
2022/11/19 08:47:40;;;;;;;0.20;0.20;;;-0.70;99.90;;;;;;5141693;27;20039;-69
2022/11/19 08:50:06;;;;;;;0.20;0.20;;;-0.70;99.90;;;;;;5145440;27;20035;-69
2022/11/19 08:52:31;;;;;;;0.20;0.20;;;-0.70;99.90;;;;;;5116106;27;20058;-69
2022/11/19 08:54:57;;;;;;;0.20;0.20;;;-0.70;99.90;;;;;;5133075;27;20047;-69
2022/11/19 08:57:22;;;;;;;0.20;0.20;;;-0.60;99.90;;;;;;5151549;27;20390;-68
2022/11/19 08:59:48;;;;;;;0.20;0.20;;;-0.60;99.90;;;;;;5142062;27;20027;-70
2022/11/19 09:02:13;;;;;;;0.20;0.20;;;-0.60;99.90;;;;;;5144111;27;20038;-68
2022/11/19 09:04:40;;;;;;;0.20;0.20;;;-0.50;99.90;;;;;;5115510;27;20486;-68
2022/11/19 09:07:06;;;;;;;0.20;0.20;;;-0.50;99.90;;;;;;5136055;27;20588;-68
2022/11/19 09:09:31;;;;;;;0.20;0.20;;;-0.40;99.90;;;;;;5146408;27;20054;-68
2022/11/19 09:11:57;;;;;;;0.20;0.20;;;-0.40;99.90;;;;;;5112053;27;20047;-70
2022/11/19 09:14:23;;;;;;;0.20;0.20;;;-0.40;99.90;;;;;;5142207;27;20047;-70
2022/11/19 09:16:48;;;;;;;0.20;0.20;;;-0.40;99.90;;;;;;5135760;27;20035;-68
2022/11/19 09:19:14;;;;;;;0.20;0.20;;;-0.30;99.90;;;;;;5146895;27;20504;-68
2022/11/19 09:21:39;;;;;;;0.20;0.20;;;-0.30;99.90;;;;;;5141114;27;20093;-70
2022/11/19 09:24:05;;;;;;;0.20;0.20;;;-0.20;99.90;;;;;;5144574;27;20146;-68
2022/11/19 09:26:31;;;;;;;0.20;0.20;;;-0.20;99.90;;;;;;5127875;27;20502;-68
2022/11/19 09:28:56;;;;;;;0.20;0.20;;;-0.10;99.90;;;;;;5144313;27;20039;-69
2022/11/19 09:31:22;;;;;;;0.20;0.20;;;-0.10;99.90;;;;;;5120056;27;20130;-69
2022/11/19 09:33:51;;;;;;;0.20;0.20;;;0.00;99.90;;;;;;5141373;27;20164;-70
2022/11/19 09:36:18;;;;;;;0.20;0.20;;;0.00;99.90;;;;;;5143876;27;20044;-70
2022/11/19 09:38:44;;;;;;;0.20;0.20;;;0.10;99.90;;;;;;5121495;27;20049;-70
2022/11/19 09:41:16;;;;;;;0.20;0.20;;;0.10;99.90;;;;;;5153076;27;20050;-69
2022/11/19 09:43:51;;;;;;;;;;;0.10;99.90;;;;;;5140592;27;20043;-69
2022/11/19 09:46:34;;;;;;;0.20;0.20;;;0.20;99.90;;;;;;5139852;27;19919;-69
2022/11/19 09:49:07;;;;;;;0.20;0.20;;;0.20;99.90;;;;;;5149798;27;20043;-69
2022/11/19 09:51:34;;;;;;;0.20;0.20;;;0.30;99.90;;;;;;5147435;27;20039;-69
2022/11/19 09:54:03;;;;;;;0.20;0.20;;;0.40;99.90;;;;;;5148971;27;20039;-70
2022/11/19 09:56:33;;;;;;;0.20;0.20;;;0.40;99.90;;;;;;5119569;27;20043;-69
2022/11/19 09:59:06;;;;;;;0.20;0.20;;;0.50;99.90;;;;;;5119143;27;20042;-70
2022/11/19 10:01:34;;;;;;;0.20;0.20;;;0.50;99.90;;;;;;5142975;27;20047;-70
2022/11/19 10:04:00;;;;;;;0.17;0.17;;;0.60;99.90;;;;;;5137982;27;20142;-69
2022/11/19 10:06:34;;;;;;;0.20;0.20;;;0.60;99.90;;;;;;5136506;27;20066;-69
2022/11/19 10:09:48;;;;;;;0.20;0.20;;;0.70;99.90;;;;;;5123549;27;20049;-69
2022/11/19 10:12:20;;;;;;;0.20;0.20;;;0.80;99.90;;;;;;5143728;27;20220;-69
2022/11/19 10:15:21;;;;;;;0.20;0.20;;;0.80;99.90;;;;;;5152065;27;20042;-69
2022/11/19 10:18:11;;;;;;;0.20;0.20;;;0.90;99.90;;;;;;5124637;27;20062;-69
2022/11/19 10:20:58;;;;;;;0.10;0.10;;;0.90;99.90;;;;;;5118856;27;20051;-69
2022/11/19 10:23:36;;;;;;;0.20;0.20;;;1.10;99.90;;;;;;5133009;27;20528;-70
2022/11/19 10:26:10;;;;;;;0.20;0.20;;;1.20;99.90;;;;;;5145072;27;20034;-69
2022/11/19 10:28:39;;;;;;;0.20;0.20;;;1.30;99.90;;;;;;5120232;27;20062;-70
2022/11/19 10:31:15;;;;;;;0.20;0.20;;;1.40;99.90;;;;;;5116257;27;20054;-69
2022/11/19 10:34:09;;;;;;;0.20;0.20;;;1.60;99.90;;;;;;5138445;27;20064;-70
2022/11/19 10:36:40;;;;;;;0.20;0.20;;;2.00;99.90;;;;;;5137230;27;20071;-70
2022/11/19 10:39:11;;;;;;;0.20;0.20;;;2.30;99.90;;;;;;5138157;27;20430;-75
2022/11/19 10:41:52;;;;;;;0.20;0.20;;;2.40;99.90;;;;;;5138331;27;20061;-70
2022/11/19 10:44:50;;;;;;;0.20;0.20;;;2.80;99.90;;;;;;5119756;27;20043;-70
2022/11/19 10:47:21;;;;;;;0.20;0.20;;;3.70;99.90;;;;;;5115333;27;20051;-76
2022/11/19 10:49:54;;;;;;;0.20;0.20;;;5.60;99.90;;;;;;5114942;27;20039;-75
2022/11/19 10:52:28;;;;;;;0.20;0.20;;;5.90;99.90;;;;;;5132808;27;20092;-75
2022/11/19 10:55:11;;;;;;;0.20;0.20;;;6.80;99.90;;;;;;5129056;27;20080;-75
2022/11/19 10:57:36;;;;;;;0.20;0.20;;;7.50;99.90;;;;;;5127624;27;20035;-75
2022/11/19 11:00:02;;;;;;;0.20;0.20;;;7.90;99.90;;;;;;5110707;27;20065;-74
2022/11/19 11:02:46;;;;;;;0.20;0.20;;;8.00;99.90;;;;;;5112658;27;20176;-75
2022/11/19 11:05:14;;;;;;;0.20;0.20;;;7.90;99.90;;;;;;5114382;28;20577;-75
2022/11/19 11:07:48;;;;;;;0.20;0.20;;;7.40;99.90;;;;;;5141691;27;20039;-76
2022/11/19 11:10:27;;;;;;;0.20;0.20;;;7.50;99.90;;;;;;5135601;27;20624;-75
2022/11/19 11:15:48;;;;;;;0.20;0.20;;;6.10;99.90;;;;;;5119797;27;20046;-75
2022/11/19 11:18:16;;;;;;;0.20;0.20;;;5.70;99.90;;;;;;5123045;27;20056;-76
2022/11/19 11:20:48;;;;;;;0.20;0.20;;;5.40;99.90;;;;;;5139118;27;20078;-75
2022/11/19 11:23:15;;;;;;;0.20;0.20;;;5.20;99.90;;;;;;5129131;27;20532;-76
2022/11/19 11:25:52;;;;;;;0.20;0.20;;;4.90;99.90;;;;;;5119357;27;20047;-76
2022/11/19 11:28:20;;;;;;;0.20;0.20;;;4.70;99.90;;;;;;5117060;27;20056;-76
2022/11/19 11:31:00;;;;;;;0.20;0.20;;;4.60;99.90;;;;;;5115805;27;20454;-76
2022/11/19 11:33:28;;;;;;;0.10;0.10;;;4.50;99.90;;;;;;5140184;27;20047;-75
2022/11/19 11:35:59;;;;;;;0.20;0.20;;;4.60;99.90;;;;;;5120677;27;20039;-76
2022/11/19 11:38:26;;;;;;;0.20;0.20;;;4.50;99.90;;;;;;5140778;27;20582;-76
2022/11/19 11:41:04;;;;;;;0.15;0.15;;;4.60;99.90;;;;;;5116659;27;20097;-76
2022/11/19 11:43:32;;;;;;;0.15;0.15;;;4.70;99.90;;;;;;5125264;27;20050;-76
2022/11/19 11:46:01;;;;;;;0.20;0.20;;;4.80;99.90;;;;;;5122312;27;20051;-77
2022/11/19 11:48:42;;;;;;;0.20;0.20;;;4.90;99.90;;;;;;5130068;27;20114;-77
2022/11/19 11:51:27;;;;;;;0.10;0.10;;;5.30;99.90;;;;;;5132815;27;20035;-76
2022/11/19 11:54:15;;;;;;;0.20;0.20;;;5.90;99.90;;;;;;5137916;27;20046;-77
2022/11/19 11:56:40;;;;;;;0.20;0.20;;;6.80;99.90;;;;;;5141819;27;20092;-77
2022/11/19 11:59:14;;;;;;;0.20;0.20;;;7.60;99.90;;;;;;5135533;27;20481;-77
2022/11/19 12:01:51;;;;;;;0.20;0.20;;;8.60;99.90;;;;;;5134113;27;20428;-77
2022/11/19 12:04:16;;;;;;;0.20;0.20;;;9.60;99.90;;;;;;5137036;27;20049;-77
2022/11/19 12:06:50;;;;;;;0.13;0.13;;;10.80;99.90;;;;;;5118533;27;20478;-77
2022/11/19 12:09:32;;;;;;;0.20;0.20;;;11.40;99.90;;;;;;5119694;27;20078;-76
2022/11/19 12:12:04;;;;;;;0.10;0.10;;;12.20;99.90;;;;;;5136934;27;20046;-76
2022/11/19 12:14:49;;;;;;;0.17;0.17;;;13.00;99.90;;;;;;5145044;27;20049;-76
2022/11/19 12:17:34;;;;;;;0.10;0.10;;;13.50;99.90;;;;;;5125927;27;20051;-75
2022/11/19 12:20:25;;;;;;;0.20;0.20;;;14.00;99.90;;;;;;5140365;27;20104;-77
2022/11/19 12:23:19;;;;;;;0.20;0.20;;;14.30;99.90;;;;;;5123878;27;20454;-77
2022/11/19 12:26:26;;;;;;;0.10;0.10;;;14.60;99.90;;;;;;5141566;27;20076;-76
2022/11/19 12:29:13;;;;;;;0.10;0.10;;;14.90;99.90;;;;;;5142999;27;20046;-77
2022/11/19 12:31:44;;;;;;;0.20;0.20;;;15.10;99.30;;;;;;5144422;27;20091;-76
2022/11/19 12:34:25;;;;;;;0.20;0.20;;;15.30;98.60;;;;;;5146506;27;20074;-77
2022/11/19 12:37:25;;;;;;;0.10;0.10;;;15.40;98.00;;;;;;5149598;27;20132;-77
2022/11/19 12:39:57;;;;;;;0.20;0.20;;;15.50;97.20;;;;;;5136796;27;20069;-76
2022/11/19 12:42:23;;;;;;;0.20;0.20;;;;;;;;;;5132595;27;20035;-73
2022/11/19 12:45:15;;;;;;;0.10;0.10;;;15.40;96.10;;;;;;5149177;27;20042;-72
2022/11/19 12:48:08;;;;;;;0.20;0.20;;;15.10;95.80;;;;;;5137631;27;20043;-72
2022/11/19 12:50:44;;;;;;;0.20;0.20;;;13.90;95.20;;;;;;5122817;27;20060;-72
2022/11/19 12:53:42;;;;;;;0.10;0.10;;;12.70;95.20;;;;;;5117127;27;20386;-72
2022/11/19 12:56:32;;;;;;;0.10;0.10;;;11.50;96.40;;;;;;5083208;27;20134;-72
2022/11/19 12:59:16;;;;;;;0.10;0.10;;;10.60;96.90;;;;;;5132633;27;20035;-72
2022/11/19 13:01:48;;;;;;;0.10;0.10;;;9.90;97.80;;;;;;5114131;27;20054;-72
2022/11/19 13:04:22;;;;;;;0.10;0.10;;;9.30;98.70;;;;;;5113665;27;20038;-72
2022/11/19 13:06:59;;;;;;;0.10;0.10;;;8.60;99.40;;;;;;5137347;27;20050;-72
2022/11/19 13:09:46;;;;;;;0.10;0.10;;;8.20;99.90;;;;;;5138198;27;20047;-74
2022/11/19 13:12:22;;;;;;;0.20;0.20;;;7.70;99.90;;;;;;5134719;27;20042;-72
2022/11/19 13:14:53;;;;;;;0.20;0.20;;;7.30;99.90;;;;;;5125408;27;20135;-72
2022/11/19 13:17:25;;;;;;;0.20;0.20;;;7.00;99.90;;;;;;5151768;27;20415;-72
2022/11/19 13:19:56;;;;;;;0.20;0.20;;;6.70;99.90;;;;;;5125608;27;20058;-72
2022/11/19 13:22:39;;;;;;;0.20;0.20;;;6.40;99.90;;;;;;5125474;27;20095;-72
2022/11/19 13:25:15;;;;;;;0.20;0.20;;;6.20;99.90;;;;;;5125406;27;20039;-71
2022/11/19 13:27:43;;;;;;;0.20;0.20;;;5.90;99.90;;;;;;5130576;27;20046;-71
2022/11/19 13:30:17;;;;;;;0.20;0.20;;;6.30;99.90;;;;;;5149637;27;20046;-71
2022/11/19 13:33:28;;;;;;;0.20;0.20;;;5.90;99.90;;;;;;5134565;27;20163;-71